Time;durP1;ratioP1;P1;durP2;ratioP2;P2;SDS_P1;SDS_P2;PMS_P1;PMS_P2;Temp;Humidity;BMP_temperature;BMP_pressure;BME280_temperature;BME280_humidity;BME280_pressure;Samples;Min_cycle;Max_cycle;Signal;HPM_P1;HPM_P2
2023/02/02 10:12:31;;;;;;;11.53;10.53;;;8.20;99.90;;;;;;5084950;27;20696;-75
2023/02/02 10:15:05;;;;;;;12.67;11.87;;;9.00;99.90;;;;;;5084420;28;20466;-75
2023/02/02 10:17:40;;;;;;;11.80;11.00;;;8.90;99.90;;;;;;5084613;28;20454;-75
2023/02/02 10:20:25;;;;;;;12.37;11.60;;;8.90;99.90;;;;;;5084765;28;20452;-75
2023/02/02 10:22:57;;;;;;;11.93;11.03;;;8.90;99.90;;;;;;5084519;28;20969;-75
2023/02/02 10:25:27;;;;;;;12.47;11.57;;;8.90;99.90;;;;;;5084267;28;20451;-76
2023/02/02 10:28:01;;;;;;;11.23;10.63;;;9.00;99.90;;;;;;5084207;28;20448;-76
2023/02/02 10:30:37;;;;;;;11.90;11.00;;;8.90;99.90;;;;;;5084026;28;20870;-75
2023/02/02 10:33:06;;;;;;;12.53;11.63;;;8.90;99.90;;;;;;5084269;28;20444;-75
2023/02/02 10:35:39;;;;;;;10.97;10.23;;;8.90;99.90;;;;;;5084704;28;20922;-75
2023/02/02 10:38:17;;;;;;;11.13;10.30;;;8.90;99.90;;;;;;5084284;28;20460;-74
2023/02/02 10:40:53;;;;;;;11.90;11.17;;;8.80;99.90;;;;;;5083721;28;20555;-74
2023/02/02 10:43:50;;;;;;;11.93;11.20;;;8.90;99.90;;;;;;5084520;28;20451;-74
2023/02/02 10:46:22;;;;;;;11.53;10.70;;;8.80;99.90;;;;;;5083779;28;20455;-76
2023/02/02 10:48:51;;;;;;;12.13;11.33;;;8.80;99.90;;;;;;5084181;28;20455;-75
2023/02/02 10:51:23;;;;;;;11.87;11.07;;;8.80;99.90;;;;;;5084079;28;20536;-77
2023/02/02 10:53:52;;;;;;;11.60;10.80;;;8.90;99.90;;;;;;5084207;28;20539;-74
2023/02/02 10:56:22;;;;;;;14.40;13.40;;;8.80;99.90;;;;;;5083921;28;20492;-74
2023/02/02 10:58:57;;;;;;;17.13;16.23;;;8.80;99.90;;;;;;5083778;28;20471;-72
2023/02/02 11:01:24;;;;;;;16.57;15.80;;;8.70;99.90;;;;;;5084015;28;20453;-73
2023/02/02 11:06:48;;;;;;;16.10;15.23;;;8.60;99.90;;;;;;5083997;28;20458;-73
2023/02/02 11:06:50;;;;;;;16.70;15.53;;;8.60;99.90;;;;;;5094231;28;20547;-74
2023/02/02 11:09:19;;;;;;;14.23;13.63;;;8.60;99.90;;;;;;5104040;28;20438;-74
2023/02/02 11:11:49;;;;;;;14.43;13.23;;;8.60;99.90;;;;;;5098700;28;20496;-73
2023/02/02 11:14:25;;;;;;;14.43;13.77;;;8.60;99.90;;;;;;5090165;28;20452;-74
2023/02/02 11:17:01;;;;;;;14.23;13.47;;;8.50;99.90;;;;;;5097302;28;20466;-76
2023/02/02 11:19:30;;;;;;;13.27;12.57;;;8.50;99.90;;;;;;5097330;28;20451;-77
2023/02/02 11:21:58;;;;;;;14.87;13.67;;;8.50;99.90;;;;;;5097668;28;20443;-76
2023/02/02 11:24:28;;;;;;;14.70;13.70;;;8.60;99.90;;;;;;5096080;28;20519;-76
2023/02/02 11:26:57;;;;;;;14.23;13.33;;;8.60;99.90;;;;;;5093675;28;20464;-76
2023/02/02 11:29:29;;;;;;;13.27;12.20;;;8.70;99.90;;;;;;5092089;28;20929;-75
2023/02/02 11:31:55;;;;;;;12.40;11.90;;;8.80;99.90;;;;;;5090454;28;20496;-75
2023/02/02 11:34:24;;;;;;;12.03;11.33;;;9.00;99.90;;;;;;5090107;28;20448;-75
2023/02/02 11:37:03;;;;;;;12.63;12.00;;;9.00;99.90;;;;;;5090517;28;20857;-76
2023/02/02 11:39:30;;;;;;;11.13;10.63;;;9.00;99.90;;;;;;5089947;28;20456;-75
2023/02/02 11:42:02;;;;;;;12.27;11.40;;;9.10;99.90;;;;;;5089851;28;20796;-76
2023/02/02 11:44:32;;;;;;;11.63;11.00;;;9.10;99.90;;;;;;5089556;28;20452;-75
2023/02/02 11:47:01;;;;;;;12.10;11.40;;;9.10;99.90;;;;;;5089795;28;20899;-75
2023/02/02 11:49:28;;;;;;;11.67;10.80;;;9.00;99.90;;;;;;5090336;28;20448;-76
2023/02/02 11:51:59;;;;;;;11.50;11.00;;;9.00;99.90;;;;;;5089724;28;20481;-75
2023/02/02 11:54:29;;;;;;;12.00;11.03;;;9.10;99.90;;;;;;5090216;28;20526;-75
2023/02/02 11:56:59;;;;;;;12.63;11.90;;;9.00;99.90;;;;;;5089623;28;20816;-75
2023/02/02 11:59:31;;;;;;;12.37;11.67;;;9.00;99.90;;;;;;5089506;28;20930;-75
2023/02/02 12:02:24;;;;;;;11.73;11.00;;;8.90;99.90;;;;;;5089751;28;20798;-75
2023/02/02 12:04:52;;;;;;;15.20;14.27;;;8.90;99.90;;;;;;5089407;28;20449;-74
2023/02/02 12:07:24;;;;;;;13.30;12.70;;;8.80;99.90;;;;;;5089317;28;20943;-73
2023/02/02 12:09:51;;;;;;;16.97;15.80;;;8.90;99.90;;;;;;5089589;28;20944;-73
2023/02/02 12:12:34;;;;;;;16.67;15.73;;;8.80;99.90;;;;;;5088796;28;20954;-73
2023/02/02 12:15:11;;;;;;;17.23;16.33;;;8.70;99.90;;;;;;5088953;28;20829;-73
2023/02/02 12:17:40;;;;;;;18.10;16.77;;;8.50;99.90;;;;;;5088860;28;20943;-73
2023/02/02 12:20:33;;;;;;;18.67;17.67;;;8.50;99.90;;;;;;5089310;28;20504;-73
2023/02/02 12:23:19;;;;;;;19.80;18.80;;;8.50;99.90;;;;;;5088307;28;20504;-74
2023/02/02 12:26:03;;;;;;;19.90;18.70;;;8.50;99.90;;;;;;5088646;28;20862;-74
2023/02/02 12:28:41;;;;;;;21.43;20.33;;;8.40;99.90;;;;;;5088951;28;20451;-74
2023/02/02 12:31:16;;;;;;;21.90;20.60;;;8.30;99.90;;;;;;5088654;28;20858;-74
2023/02/02 12:33:51;;;;;;;21.00;19.80;;;8.30;99.90;;;;;;5088616;28;20484;-73
2023/02/02 12:36:41;;;;;;;22.13;20.93;;;8.30;99.90;;;;;;5088750;28;20947;-74
2023/02/02 12:39:20;;;;;;;21.77;20.20;;;8.20;99.90;;;;;;5089279;28;20455;-73
2023/02/02 12:42:21;;;;;;;21.80;20.90;;;8.20;99.90;;;;;;5088712;28;20470;-75
2023/02/02 12:45:11;;;;;;;21.83;20.80;;;8.10;99.90;;;;;;5088719;28;20435;-74
2023/02/02 12:47:48;;;;;;;23.03;21.73;;;8.10;99.90;;;;;;5089047;28;20446;-73
2023/02/02 12:50:28;;;;;;;21.00;20.00;;;8.00;99.90;;;;;;5088608;28;20453;-74
2023/02/02 12:53:20;;;;;;;21.60;20.43;;;8.00;99.90;;;;;;5088432;28;20808;-74
2023/02/02 12:55:52;;;;;;;23.03;21.60;;;7.90;99.90;;;;;;5088633;28;20454;-73
2023/02/02 12:58:28;;;;;;;23.77;22.57;;;7.80;99.90;;;;;;5088287;28;20961;-73
2023/02/02 13:01:20;;;;;;;24.57;23.00;;;7.70;99.90;;;;;;5088196;28;20448;-73
2023/02/02 13:04:00;;;;;;;25.00;23.60;;;7.70;99.90;;;;;;5085645;28;20558;-73
2023/02/02 13:06:51;;;;;;;25.93;24.40;;;7.70;99.90;;;;;;5087809;28;20524;-73
2023/02/02 13:09:25;;;;;;;25.07;23.67;;;7.70;99.90;;;;;;5082910;28;20457;-73
2023/02/02 13:11:56;;;;;;;23.93;22.70;;;7.70;99.90;;;;;;5087863;28;20828;-73
2023/02/02 13:14:27;;;;;;;25.13;23.20;;;7.70;99.90;;;;;;5087975;28;20490;-73
2023/02/02 13:16:56;;;;;;;23.80;22.50;;;7.70;99.90;;;;;;5087888;28;20965;-73
2023/02/02 13:19:32;;;;;;;24.67;23.00;;;7.70;99.90;;;;;;5087846;28;20454;-74
2023/02/02 13:22:02;;;;;;;25.47;23.77;;;7.70;99.90;;;;;;5087726;28;20878;-74
2023/02/02 13:24:31;;;;;;;24.00;22.30;;;7.70;99.90;;;;;;5088071;28;20471;-74
2023/02/02 13:27:00;;;;;;;25.27;23.57;;;7.70;99.90;;;;;;5087695;28;20448;-74
2023/02/02 13:29:33;;;;;;;23.70;22.50;;;7.70;99.90;;;;;;5087545;28;20455;-73
2023/02/02 13:32:04;;;;;;;24.50;22.80;;;7.70;99.90;;;;;;5087669;28;20545;-74
2023/02/02 13:34:41;;;;;;;23.30;21.90;;;7.70;99.90;;;;;;5087524;28;20968;-74
2023/02/02 13:37:16;;;;;;;23.03;21.80;;;7.80;99.90;;;;;;5087833;28;20850;-73
2023/02/02 13:39:47;;;;;;;24.40;22.53;;;7.80;99.90;;;;;;5087854;28;20463;-74
2023/02/02 13:42:28;;;;;;;23.17;21.77;;;7.90;99.90;;;;;;5087476;28;20560;-74
2023/02/02 13:45:02;;;;;;;21.70;19.80;;;7.80;99.90;;;;;;5087825;28;20474;-75
2023/02/02 13:47:38;;;;;;;15.47;14.67;;;8.00;99.90;;;;;;5087704;28;20932;-76
2023/02/02 13:50:13;;;;;;;13.33;12.53;;;8.10;99.90;;;;;;5087621;28;20454;-75
2023/02/02 13:52:58;;;;;;;14.13;13.33;;;8.10;99.90;;;;;;5087720;28;20489;-75
2023/02/02 13:55:57;;;;;;;13.63;12.80;;;8.20;99.90;;;;;;5087302;28;20537;-75
2023/02/02 13:58:48;;;;;;;13.83;12.73;;;8.30;99.90;;;;;;5087213;28;20457;-75
2023/02/02 14:01:15;;;;;;;12.90;12.20;;;8.40;99.90;;;;;;5087497;28;20464;-75
2023/02/02 14:03:43;;;;;;;13.57;12.67;;;8.50;99.90;;;;;;5087486;28;20780;-76
2023/02/02 14:06:15;;;;;;;13.43;12.67;;;8.50;99.90;;;;;;5087424;28;20476;-77
2023/02/02 14:08:48;;;;;;;15.23;14.33;;;8.50;99.90;;;;;;5087580;28;20549;-77
2023/02/02 14:11:23;;;;;;;12.40;11.90;;;8.50;99.90;;;;;;5087130;28;20486;-77
2023/02/02 14:16:47;;;;;;;13.37;12.30;;;8.50;99.90;;;;;;5087625;28;21055;-77
2023/02/02 14:19:16;;;;;;;13.80;12.87;;;8.60;99.90;;;;;;5087169;28;20464;-77
2023/02/02 14:22:01;;;;;;;13.13;12.53;;;8.60;99.90;;;;;;5087528;28;20456;-77
2023/02/02 14:24:42;;;;;;;13.73;12.90;;;8.70;99.90;;;;;;5087511;28;20455;-76
2023/02/02 14:27:56;;;;;;;13.80;12.90;;;8.60;99.90;;;;;;5087235;28;20506;-77
2023/02/02 14:30:31;;;;;;;12.90;12.20;;;8.70;99.90;;;;;;5087563;28;20442;-77
2023/02/02 14:33:24;;;;;;;13.60;12.30;;;8.80;99.90;;;;;;5087349;28;20486;-77
2023/02/02 14:35:58;;;;;;;14.37;13.43;;;8.80;99.90;;;;;;5087520;28;20543;-77
2023/02/02 14:38:48;;;;;;;15.00;13.40;;;8.80;99.90;;;;;;5087339;28;20455;-77
2023/02/02 14:43:43;;;;;;;11.70;11.20;;;8.80;99.90;;;;;;5085619;28;20482;-77
2023/02/02 14:44:07;;;;;;;12.33;11.37;;;8.80;99.90;;;;;;5087022;28;20813;-77
2023/02/02 14:46:38;;;;;;;12.70;12.00;;;8.90;99.90;;;;;;5087730;28;20476;-77
2023/02/02 14:49:18;;;;;;;17.73;13.30;;;8.80;99.90;;;;;;5091064;28;20501;-77
2023/02/02 14:51:54;;;;;;;12.27;11.37;;;8.80;99.90;;;;;;5090758;28;20494;-77
2023/02/02 14:54:30;;;;;;;12.80;12.10;;;8.70;99.90;;;;;;5091217;28;20452;-77
2023/02/02 14:57:00;;;;;;;14.03;12.93;;;8.80;99.90;;;;;;5091019;28;20460;-77
2023/02/02 14:59:32;;;;;;;11.93;11.27;;;8.80;99.90;;;;;;5090946;28;20475;-77
2023/02/02 15:02:14;;;;;;;11.77;11.27;;;8.80;99.90;;;;;;5091045;28;20469;-77
2023/02/02 15:04:41;;;;;;;13.10;12.20;;;8.80;99.90;;;;;;5090477;28;20456;-76
2023/02/02 15:07:37;;;;;;;12.00;11.20;;;8.80;99.90;;;;;;5091021;28;20475;-76
2023/02/02 15:10:09;;;;;;;14.10;13.10;;;8.80;99.90;;;;;;5090847;28;20483;-78
2023/02/02 15:12:42;;;;;;;12.40;11.50;;;8.80;99.90;;;;;;5091087;28;20489;-77
2023/02/02 15:15:21;;;;;;;11.70;11.20;;;8.80;99.90;;;;;;5090960;28;20896;-77
2023/02/02 15:17:58;;;;;;;12.93;12.27;;;8.80;99.90;;;;;;5090886;28;20485;-78
2023/02/02 15:20:29;;;;;;;13.50;12.80;;;8.90;99.90;;;;;;5091029;28;20946;-78
2023/02/02 15:23:00;;;;;;;11.90;11.30;;;8.90;99.90;;;;;;5103687;28;20452;-78
2023/02/02 15:25:33;;;;;;;12.83;11.83;;;8.90;99.90;;;;;;5106384;28;20444;-78
2023/02/02 15:28:04;;;;;;;13.00;12.07;;;8.80;99.90;;;;;;5107461;28;20450;-78
2023/02/02 15:30:36;;;;;;;12.93;12.07;;;8.90;99.90;;;;;;5108605;28;20454;-77
2023/02/02 15:33:07;;;;;;;13.87;12.87;;;8.90;99.90;;;;;;5100048;28;20485;-77
2023/02/02 15:35:34;;;;;;;12.53;11.90;;;9.00;99.90;;;;;;5093769;28;20560;-76
2023/02/02 15:38:04;;;;;;;12.50;12.00;;;8.90;99.90;;;;;;5090970;28;20537;-78
2023/02/02 15:40:36;;;;;;;13.63;12.70;;;9.00;99.90;;;;;;5090369;28;20470;-78
2023/02/02 15:43:08;;;;;;;12.73;11.60;;;8.90;99.90;;;;;;5089968;28;20453;-75
2023/02/02 15:45:43;;;;;;;14.03;12.80;;;8.90;99.90;;;;;;5090358;28;20450;-76
2023/02/02 15:48:21;;;;;;;12.70;11.90;;;8.90;99.90;;;;;;5089877;28;20953;-76
2023/02/02 15:50:53;;;;;;;13.43;12.63;;;8.80;99.90;;;;;;5089985;28;20452;-77
2023/02/02 15:53:23;;;;;;;13.23;12.20;;;8.90;99.90;;;;;;5090057;28;20541;-76
2023/02/02 15:55:51;;;;;;;13.20;12.20;;;8.80;99.90;;;;;;5090466;28;20463;-76
2023/02/02 15:58:27;;;;;;;13.23;12.43;;;8.80;99.90;;;;;;5089950;28;20797;-75
2023/02/02 16:01:03;;;;;;;12.63;11.90;;;8.80;99.90;;;;;;5089821;28;20450;-76
2023/02/02 16:03:37;;;;;;;13.13;12.20;;;8.70;99.90;;;;;;5089495;28;20442;-76
2023/02/02 16:06:07;;;;;;;12.70;12.00;;;8.80;99.90;;;;;;5089903;28;20488;-76
2023/02/02 16:08:38;;;;;;;12.00;11.20;;;8.70;99.90;;;;;;5089730;28;20837;-76
2023/02/02 16:11:09;;;;;;;11.80;11.00;;;8.70;99.90;;;;;;5089621;28;21055;-77
2023/02/02 16:13:37;;;;;;;13.30;12.13;;;8.70;99.90;;;;;;5089632;28;20484;-77
2023/02/02 16:16:07;;;;;;;12.87;12.00;;;8.70;99.90;;;;;;5089261;28;20541;-77
2023/02/02 16:18:35;;;;;;;12.60;11.80;;;8.70;99.90;;;;;;5089543;28;20458;-77
2023/02/02 16:21:06;;;;;;;12.97;11.80;;;8.60;99.90;;;;;;5089247;28;20444;-77
2023/02/02 16:23:35;;;;;;;12.37;11.83;;;8.70;99.90;;;;;;5089553;28;20445;-76
2023/02/02 16:26:05;;;;;;;12.83;12.23;;;8.80;99.90;;;;;;5089131;28;20457;-77
2023/02/02 16:28:34;;;;;;;13.70;12.50;;;8.80;99.90;;;;;;5088675;28;20635;-76
2023/02/02 16:31:02;;;;;;;12.33;11.50;;;8.70;99.90;;;;;;5089094;28;20462;-76
2023/02/02 16:33:34;;;;;;;11.90;11.20;;;8.70;99.90;;;;;;5088778;28;20493;-76
2023/02/02 16:36:02;;;;;;;12.67;11.70;;;8.80;99.90;;;;;;5088592;28;20800;-76
2023/02/02 16:38:32;;;;;;;11.40;10.70;;;8.80;99.90;;;;;;5088853;28;20447;-77
2023/02/02 16:41:07;;;;;;;12.30;11.17;;;8.90;99.90;;;;;;5088813;28;20451;-76
2023/02/02 16:43:36;;;;;;;12.17;11.47;;;8.80;99.90;;;;;;5088623;28;20450;-77
2023/02/02 16:46:06;;;;;;;12.43;11.80;;;8.80;99.90;;;;;;5088951;28;20542;-76
2023/02/02 16:48:34;;;;;;;12.67;11.93;;;8.70;99.90;;;;;;5089614;28;20542;-77
2023/02/02 16:51:24;;;;;;;12.80;12.20;;;8.70;99.90;;;;;;5089078;28;20447;-76
2023/02/02 16:54:01;;;;;;;13.00;12.40;;;8.80;99.90;;;;;;5088837;28;20550;-76
2023/02/02 16:56:32;;;;;;;12.53;11.50;;;8.70;99.90;;;;;;5088340;28;20454;-77
2023/02/02 16:59:04;;;;;;;11.33;10.63;;;8.80;99.90;;;;;;5090740;28;20502;-75
2023/02/02 17:01:36;;;;;;;12.83;11.93;;;8.80;99.90;;;;;;5090549;28;20464;-76
2023/02/02 17:04:04;;;;;;;11.53;10.73;;;8.90;99.90;;;;;;5093425;28;20898;-75
2023/02/02 17:06:34;;;;;;;11.60;11.10;;;8.90;99.90;;;;;;5100420;28;20463;-75
2023/02/02 17:09:15;;;;;;;11.70;11.10;;;8.90;99.90;;;;;;5093712;28;20448;-77
2023/02/02 17:11:59;;;;;;;11.40;10.80;;;8.80;99.90;;;;;;5096328;28;20479;-78
2023/02/02 17:14:32;;;;;;;11.47;10.97;;;8.80;99.90;;;;;;5092586;28;20450;-76
2023/02/02 17:16:59;;;;;;;11.30;10.63;;;8.80;99.90;;;;;;5091347;28;20453;-76
2023/02/02 17:19:29;;;;;;;9.87;9.23;;;8.80;99.90;;;;;;5091244;28;20449;-77
2023/02/02 17:21:57;;;;;;;10.37;9.97;;;8.70;99.90;;;;;;5089912;28;21026;-76
2023/02/02 17:24:24;;;;;;;11.77;11.20;;;8.70;99.90;;;;;;5089261;28;20453;-76
2023/02/02 17:26:51;;;;;;;11.20;10.80;;;8.70;99.90;;;;;;5088972;28;20435;-77
2023/02/02 17:29:19;;;;;;;10.43;9.93;;;8.70;99.90;;;;;;5088501;28;20474;-77
2023/02/02 17:31:47;;;;;;;10.70;10.30;;;8.70;99.90;;;;;;5088559;28;20472;-77
2023/02/02 17:34:15;;;;;;;11.07;10.50;;;8.70;99.90;;;;;;5088106;28;20449;-77
2023/02/02 17:36:42;;;;;;;10.90;10.40;;;8.70;99.90;;;;;;5087626;28;20473;-77
2023/02/02 17:39:09;;;;;;;11.60;11.07;;;8.60;99.90;;;;;;5088161;28;20451;-77
2023/02/02 17:41:36;;;;;;;11.77;11.20;;;8.60;99.90;;;;;;5088164;28;20771;-76
2023/02/02 17:44:04;;;;;;;11.20;10.70;;;8.60;99.90;;;;;;5087793;28;20471;-75
2023/02/02 17:46:31;;;;;;;10.70;10.30;;;8.60;99.90;;;;;;5087595;28;20771;-76
2023/02/02 17:48:59;;;;;;;11.40;10.90;;;8.70;99.90;;;;;;5087369;28;20447;-75
2023/02/02 17:51:26;;;;;;;10.80;10.20;;;8.60;99.90;;;;;;5088111;28;20451;-75
2023/02/02 17:53:54;;;;;;;10.87;10.37;;;8.70;99.90;;;;;;5088818;28;20518;-75
2023/02/02 17:56:21;;;;;;;11.37;10.67;;;8.60;99.90;;;;;;5089111;28;20538;-76
2023/02/02 17:58:47;;;;;;;11.97;11.37;;;8.60;99.90;;;;;;5088903;28;20452;-76
